Terminal Aerodrome Forecast
Issued by NWS Cleveland, OH

Home | Current Version | Previous Version | Graphics & Text | Print | Product List | Glossary On
Versions: 1 2 3 4 5 6 7 8 9 10 11 12 13 14 15 16 17 18 19 20 21 22 23 24 25 26
000
FTUS41 KCLE 220500
TAFCAK
TAF
KCAK 220520Z 2206/2306 VRB03KT P6SM VCSH FEW008 OVC100
     FM221000 VRB03KT 4SM BR SCT008 BKN015
     FM221500 VRB03KT P6SM VCTS SCT025 BKN035CB
     FM221900 26005KT P6SM SCT035 OVC100
     FM230300 VRB03KT 5SM BR BKN100=

USA.gov is the U.S. government's official web portal to all federal, state and local government web resources and services.